Time;durP1;ratioP1;P1;durP2;ratioP2;P2;SDS_P1;SDS_P2;PMS_P1;PMS_P2;Temp;Humidity;BMP_temperature;BMP_pressure;BME280_temperature;BME280_humidity;BME280_pressure;Samples;Min_cycle;Max_cycle;Signal;HPM_P1;HPM_P2
2023/05/16 00:01:09;;;;;;;;;5.25;3.00;;;;;11.26;65.47;101323.69;5074908;27;45548;-77
2023/05/16 00:03:35;;;;;;;;;3.25;3.00;;;;;11.25;65.36;101322.00;5074937;27;46015;-77
2023/05/16 00:06:01;;;;;;;;;4.00;3.00;;;;;11.27;65.33;101336.72;5074642;27;46273;-76
2023/05/16 00:08:27;;;;;;;;;4.50;4.00;;;;;11.24;65.31;101329.03;5074745;27;45788;-76
2023/05/16 00:10:53;;;;;;;;;7.00;4.00;;;;;11.21;65.08;101326.59;5074805;27;45504;-78
2023/05/16 00:13:23;;;;;;;;;2.00;2.00;;;;;11.21;65.10;101333.63;5074969;27;45713;-78
2023/05/16 00:15:50;;;;;;;;;3.50;2.50;;;;;11.18;65.54;101334.63;5074584;27;46263;-76
2023/05/16 00:21:37;;;;;;;;;3.25;3.00;;;;;11.06;65.31;101324.94;5074362;28;45784;-77
2023/05/16 00:24:04;;;;;;;;;4.50;3.00;;;;;11.02;65.24;101331.28;5073205;28;45968;-76
2023/05/16 00:26:29;;;;;;;;;5.00;3.00;;;;;10.99;65.28;101333.25;5074625;27;45943;-76
2023/05/16 00:28:54;;;;;;;;;3.00;3.00;;;;;10.98;65.41;101327.16;5074390;27;46558;-77
2023/05/16 00:31:20;;;;;;;;;3.75;2.75;;;;;11.00;65.40;101325.31;5074531;27;45613;-76
2023/05/16 00:33:45;;;;;;;;;7.00;4.25;;;;;11.03;65.44;101329.50;5073971;27;45602;-76
2023/05/16 00:36:11;;;;;;;;;4.50;2.00;;;;;11.03;65.27;101330.34;5074101;27;46432;-77
2023/05/16 00:38:36;;;;;;;;;4.75;3.00;;;;;10.97;65.22;101325.47;5073101;28;46162;-76
2023/05/16 00:41:03;;;;;;;;;3.75;3.00;;;;;10.95;65.46;101324.75;5074201;27;45691;-76
2023/05/16 00:43:28;;;;;;;;;4.25;2.00;;;;;10.94;65.34;101323.91;5074490;28;45581;-75
2023/05/16 00:45:54;;;;;;;;;3.00;2.00;;;;;10.90;65.47;101327.63;5074083;28;46606;-77
2023/05/16 00:51:41;;;;;;;;;2.00;2.00;;;;;10.86;65.40;101318.25;5071389;28;45868;-76
2023/05/16 00:54:07;;;;;;;;;5.00;2.25;;;;;10.82;65.45;101326.41;5074438;28;45658;-75
2023/05/16 00:56:32;;;;;;;;;5.00;2.00;;;;;10.82;65.51;101316.78;5073914;28;46343;-75
2023/05/16 00:58:58;;;;;;;;;5.50;2.00;;;;;10.81;65.35;101325.56;5074056;28;45675;-78
2023/05/16 01:01:26;;;;;;;;;3.50;2.00;;;;;10.83;65.40;101321.09;5073746;27;45619;-76
2023/05/16 01:07:13;;;;;;;;;4.00;3.00;;;;;10.83;65.47;101321.09;5073709;28;45743;-76
2023/05/16 01:09:39;;;;;;;;;1.25;1.00;;;;;10.80;65.72;101329.13;5073684;28;46079;-77
2023/05/16 01:12:22;;;;;;;;;1.25;1.25;;;;;10.78;65.21;101344.13;5073758;27;45806;-76
2023/05/16 01:15:01;;;;;;;;;5.50;2.00;;;;;10.72;65.17;101334.00;5073996;28;45801;-77
2023/05/16 01:17:51;;;;;;;;;5.00;2.00;;;;;10.70;65.35;101335.84;5073728;27;45548;-76
2023/05/16 01:21:03;;;;;;;;;2.00;2.00;;;;;10.69;65.35;101330.72;5089284;27;47014;-78
2023/05/16 01:23:52;;;;;;;;;5.50;2.25;;;;;10.65;65.40;101337.91;5011196;28;45625;-78
2023/05/16 01:26:26;;;;;;;;;2.00;2.00;;;;;10.61;65.47;101331.16;5011368;28;45572;-78
2023/05/16 01:28:53;;;;;;;;;2.00;1.75;;;;;10.58;65.46;101336.56;5011020;28;45834;-78
2023/05/16 01:31:19;;;;;;;;;3.00;2.75;;;;;10.56;65.64;101343.69;5011263;28;45731;-78
2023/05/16 01:33:45;;;;;;;;;5.75;3.25;;;;;10.52;65.63;101335.19;5011270;28;45895;-79
2023/05/16 01:36:21;;;;;;;;;4.50;2.00;;;;;10.52;65.69;101329.09;5011367;28;45814;-75
2023/05/16 01:38:58;;;;;;;;;3.00;2.00;;;;;10.49;65.66;101334.50;5011070;28;46366;-74
2023/05/16 01:41:30;;;;;;;;;4.50;2.00;;;;;10.46;65.69;101348.66;5010954;28;46100;-77
2023/05/16 01:44:00;;;;;;;;;4.50;2.50;;;;;10.41;65.82;101332.34;5012011;28;45825;-76
2023/05/16 01:46:29;;;;;;;;;3.00;1.75;;;;;10.40;65.79;101341.16;5014524;28;45558;-76
2023/05/16 01:49:12;;;;;;;;;4.50;2.00;;;;;10.38;66.07;101340.38;5014537;28;46895;-77
2023/05/16 01:51:39;;;;;;;;;3.25;2.50;;;;;10.38;66.05;101342.16;5014192;28;46174;-76
2023/05/16 01:54:10;;;;;;;;;5.25;2.00;;;;;10.36;65.99;101344.03;5014579;28;45892;-75
2023/05/16 01:56:36;;;;;;;;;3.00;2.00;;;;;10.35;65.95;101347.59;5014596;28;45840;-78
2023/05/16 01:59:03;;;;;;;;;2.75;2.00;;;;;10.30;66.23;101340.00;5050165;27;47766;-77
2023/05/16 02:01:30;;;;;;;;;2.00;2.00;;;;;10.31;66.00;101359.19;5091910;27;47413;-77
2023/05/16 02:03:55;;;;;;;;;2.25;2.25;;;;;10.29;66.24;101347.94;5076716;27;45737;-77
2023/05/16 02:06:21;;;;;;;;;5.00;2.25;;;;;10.29;66.13;101359.25;5076616;27;45655;-77
2023/05/16 02:08:47;;;;;;;;;2.25;2.00;;;;;10.25;65.98;101343.81;5076644;27;45596;-76
2023/05/16 02:11:13;;;;;;;;;5.50;2.00;;;;;10.24;66.52;101349.97;5076568;27;46371;-77
2023/05/16 02:13:38;;;;;;;;;2.00;1.00;;;;;10.24;66.12;101349.97;5076539;27;45547;-75
2023/05/16 02:16:04;;;;;;;;;6.75;2.00;;;;;10.23;66.19;101345.66;5076647;27;45687;-76
2023/05/16 02:18:30;;;;;;;;;3.00;2.00;;;;;10.22;66.35;101342.22;5076346;27;45489;-75
2023/05/16 02:20:55;;;;;;;;;2.50;1.00;;;;;10.25;66.04;101343.81;5076434;27;46031;-76
2023/05/16 02:23:21;;;;;;;;;1.75;1.00;;;;;10.27;66.21;101350.63;5076432;27;45462;-76
2023/05/16 02:25:46;;;;;;;;;2.00;1.50;;;;;10.28;66.25;101354.94;5076338;27;45761;-77
2023/05/16 02:28:12;;;;;;;;;2.00;2.00;;;;;10.26;66.08;101355.94;5076330;27;46886;-76
2023/05/16 02:30:37;;;;;;;;;2.00;1.50;;;;;10.19;66.10;101347.63;5091716;27;47142;-76
2023/05/16 02:33:02;;;;;;;;;5.25;2.00;;;;;10.18;66.46;101355.56;5076127;27;45713;-78
2023/05/16 02:35:28;;;;;;;;;5.00;3.00;;;;;10.21;66.37;101361.47;5091801;27;45932;-79
2023/05/16 02:37:54;;;;;;;;;3.50;2.00;;;;;10.20;66.42;101356.34;5076114;27;45818;-78
2023/05/16 02:40:20;;;;;;;;;3.00;1.75;;;;;10.17;66.34;101352.09;5076030;27;46548;-77
2023/05/16 02:42:45;;;;;;;;;2.25;1.00;;;;;10.14;66.41;101354.88;5076204;27;45674;-77
2023/05/16 02:45:11;;;;;;;;;2.25;2.25;;;;;10.15;66.37;101356.53;5076040;27;45799;-76
2023/05/16 02:47:36;;;;;;;;;1.50;1.00;;;;;10.14;66.59;101352.25;5076141;27;45622;-76
2023/05/16 02:50:02;;;;;;;;;4.00;1.00;;;;;10.10;66.27;101359.41;5075957;27;45996;-76
2023/05/16 02:52:28;;;;;;;;;2.00;1.25;;;;;10.09;66.53;101364.78;5075623;27;45595;-77
2023/05/16 02:54:54;;;;;;;;;3.00;2.00;;;;;10.06;66.73;101365.78;5075941;27;45643;-78
2023/05/16 02:57:19;;;;;;;;;2.75;2.00;;;;;10.07;66.47;101369.25;5075315;27;46444;-75
2023/05/16 02:59:45;;;;;;;;;2.25;1.00;;;;;10.07;66.71;101361.38;5075876;28;45569;-76
2023/05/16 03:02:10;;;;;;;;;1.25;1.00;;;;;10.06;66.63;101364.94;5075688;27;45651;-75
2023/05/16 03:07:57;;;;;;;;;2.00;1.25;;;;;10.08;66.52;101360.47;5075555;28;45947;-76
2023/05/16 03:10:22;;;;;;;;;3.00;3.00;;;;;10.03;66.80;101365.13;5075708;27;46059;-76
2023/05/16 03:12:48;;;;;;;;;1.50;1.50;;;;;10.02;66.79;101379.13;5075705;27;45643;-75
2023/05/16 03:15:13;;;;;;;;;2.00;1.50;;;;;10.01;66.70;101374.81;5075805;27;45611;-75
2023/05/16 03:17:38;;;;;;;;;3.75;1.75;;;;;9.96;66.55;101366.38;5075555;27;45842;-75
2023/05/16 03:23:26;;;;;;;;;1.75;1.75;;;;;9.96;66.95;101388.16;5075383;28;45573;-77
2023/05/16 03:25:51;;;;;;;;;2.75;2.75;;;;;9.96;66.96;101388.16;5075478;27;45773;-75
2023/05/16 03:28:17;;;;;;;;;1.00;1.00;;;;;9.96;66.92;101375.09;5075467;28;45585;-75
2023/05/16 03:30:42;;;;;;;;;2.75;2.00;;;;;9.95;66.95;101383.84;5075365;27;46434;-76
2023/05/16 03:33:08;;;;;;;;;3.00;2.50;;;;;9.95;67.11;101394.31;5075531;27;45536;-78
2023/05/16 03:35:35;;;;;;;;;2.50;2.50;;;;;9.93;66.90;101397.97;5075562;27;45742;-77
2023/05/16 03:38:00;;;;;;;;;2.00;2.00;;;;;9.88;66.89;101398.19;5075215;27;45487;-77
2023/05/16 03:40:25;;;;;;;;;2.00;1.00;;;;;9.84;67.23;101401.09;5090826;27;45903;-76
2023/05/16 03:42:51;;;;;;;;;2.00;1.50;;;;;9.80;67.17;101404.81;5075377;27;45642;-76
2023/05/16 03:45:16;;;;;;;;;3.00;0.75;;;;;9.81;67.23;101424.81;5075446;27;45695;-76
2023/05/16 03:47:42;;;;;;;;;2.50;1.00;;;;;9.78;67.22;101406.66;5075340;27;45907;-77
2023/05/16 03:53:43;;;;;;;;;1.50;1.25;;;;;9.71;67.36;101415.78;5065943;28;45779;-77
2023/05/16 03:56:08;;;;;;;;;2.00;2.00;;;;;9.68;67.26;101411.53;5075343;28;45844;-75
2023/05/16 03:58:34;;;;;;;;;1.50;1.00;;;;;9.67;67.51;101417.69;5075087;27;45614;-74
2023/05/16 04:00:59;;;;;;;;;2.50;1.75;;;;;9.65;67.75;101409.13;5075010;28;46312;-77
2023/05/16 04:03:27;;;;;;;;;2.00;2.00;;;;;9.66;67.65;101416.03;5075076;27;45943;-77
2023/05/16 04:05:54;;;;;;;;;6.25;2.00;;;;;9.64;67.72;101408.25;5075005;27;45630;-76
2023/05/16 04:08:20;;;;;;;;;3.50;2.50;;;;;9.66;67.79;101411.63;5073560;27;45543;-77
2023/05/16 04:10:45;;;;;;;;;2.75;1.75;;;;;9.64;67.92;101421.34;5074903;28;46311;-76
2023/05/16 04:13:11;;;;;;;;;3.00;3.00;;;;;9.63;67.84;101422.25;5074829;27;45611;-75
2023/05/16 04:15:36;;;;;;;;;1.25;1.00;;;;;9.61;67.81;101428.50;5075064;27;45473;-75
2023/05/16 04:18:02;;;;;;;;;6.00;3.50;;;;;9.54;67.75;101417.53;5074769;27;46438;-77
2023/05/16 04:23:49;;;;;;;;;3.50;2.00;;;;;9.54;67.70;101443.69;5074512;28;45952;-76
2023/05/16 04:26:14;;;;;;;;;2.25;1.50;;;;;9.52;67.91;101444.69;5074929;27;45591;-75
2023/05/16 04:28:40;;;;;;;;;5.00;2.00;;;;;9.49;68.01;101440.47;5074796;27;46556;-77
2023/05/16 04:31:06;;;;;;;;;3.50;2.50;;;;;9.48;67.95;101438.78;5074415;27;46009;-76
2023/05/16 04:33:32;;;;;;;;;4.00;2.00;;;;;9.47;68.17;101444.94;5074606;27;45646;-75
2023/05/16 04:35:58;;;;;;;;;2.50;2.00;;;;;9.48;68.10;101440.56;5090031;27;45560;-78
2023/05/16 04:38:24;;;;;;;;;5.00;2.25;;;;;9.48;68.05;101443.19;5074427;27;46501;-78
2023/05/16 04:40:50;;;;;;;;;6.25;3.00;;;;;9.49;68.26;101442.25;5074384;27;46201;-78
2023/05/16 04:43:15;;;;;;;;;1.25;1.25;;;;;9.51;68.28;101461.31;5074391;27;45501;-75
2023/05/16 04:45:41;;;;;;;;;2.00;1.25;;;;;9.52;68.18;101444.69;5074473;27;45572;-77
2023/05/16 04:48:07;;;;;;;;;3.00;2.00;;;;;9.52;68.06;101444.69;5074193;27;45986;-78
2023/05/16 04:53:54;;;;;;;;;1.50;1.00;;;;;9.49;67.89;101450.94;5069597;28;45735;-76
2023/05/16 04:56:21;;;;;;;;;2.00;1.00;;;;;9.49;68.11;101456.19;5074313;27;45573;-78
2023/05/16 04:58:47;;;;;;;;;3.50;2.25;;;;;9.51;67.99;101454.31;5074267;27;45794;-75
2023/05/16 05:01:12;;;;;;;;;3.00;2.00;;;;;9.51;68.12;101454.31;5073663;27;45734;-76
2023/05/16 05:03:37;;;;;;;;;3.00;2.00;;;;;9.52;68.10;101453.38;5074391;27;45655;-75
2023/05/16 05:09:24;;;;;;;;;2.25;2.00;;;;;9.48;67.88;101453.63;5073685;28;46152;-75
2023/05/16 05:11:50;;;;;;;;;4.00;4.00;;;;;9.53;67.99;101465.53;5073765;28;45502;-75
2023/05/16 05:14:15;;;;;;;;;3.00;2.00;;;;;9.54;68.19;101462.00;5074033;27;45715;-76
2023/05/16 05:16:41;;;;;;;;;3.00;3.00;;;;;9.53;68.13;101468.16;5089481;27;45932;-76
2023/05/16 05:19:07;;;;;;;;;6.00;5.00;;;;;9.54;68.37;101458.53;5075159;27;46923;-78
2023/05/16 05:21:33;;;;;;;;;3.00;2.00;;;;;9.56;68.33;101464.53;5080902;27;45927;-77
2023/05/16 05:23:58;;;;;;;;;5.00;2.00;;;;;9.57;68.13;101466.22;5084449;28;45595;-78
2023/05/16 05:26:25;;;;;;;;;5.00;2.50;;;;;9.58;67.99;101471.38;5087210;27;45553;-76
2023/05/16 05:28:51;;;;;;;;;2.00;1.25;;;;;9.59;68.13;101477.47;5089112;27;47624;-73
2023/05/16 05:31:16;;;;;;;;;3.25;2.75;;;;;9.58;68.18;101474.00;5080970;28;46103;-75
2023/05/16 05:33:42;;;;;;;;;2.00;2.00;;;;;9.58;68.10;101470.53;5078431;27;45550;-76
2023/05/16 05:39:29;;;;;;;;;6.00;3.00;;;;;9.67;68.03;101480.50;5077617;28;45579;-75
2023/05/16 05:41:55;;;;;;;;;4.50;3.00;;;;;9.71;68.01;101481.19;5077496;27;45572;-75
2023/05/16 05:44:20;;;;;;;;;4.00;2.75;;;;;9.73;68.52;101482.78;5077128;27;45513;-75
2023/05/16 05:46:46;;;;;;;;;4.00;3.00;;;;;9.78;67.84;101485.16;5077109;27;45698;-75
2023/05/16 05:49:12;;;;;;;;;6.00;3.00;;;;;9.78;67.67;101493.84;5075106;28;46911;-76
2023/05/16 05:54:59;;;;;;;;;4.50;3.00;;;;;9.82;67.82;101484.94;5065563;28;45870;-77
2023/05/16 05:57:24;;;;;;;;;4.50;3.00;;;;;9.84;67.47;101493.53;5077008;28;45749;-76
2023/05/16 05:59:50;;;;;;;;;6.50;2.00;;;;;9.87;67.71;101492.53;5076972;27;45562;-77
2023/05/16 06:02:16;;;;;;;;;5.00;2.50;;;;;9.90;67.70;101482.72;5076834;27;45664;-79
2023/05/16 06:04:41;;;;;;;;;4.00;2.00;;;;;9.95;67.54;101495.56;5075359;28;45678;-78
2023/05/16 06:07:07;;;;;;;;;2.00;2.00;;;;;9.96;67.05;101487.63;5077223;28;45497;-78
2023/05/16 06:09:32;;;;;;;;;2.00;1.50;;;;;9.98;67.17;101482.31;5092180;27;47639;-79
2023/05/16 06:11:58;;;;;;;;;5.00;1.75;;;;;10.02;66.98;101476.00;5076558;27;46144;-76
2023/05/16 06:14:24;;;;;;;;;3.50;2.75;;;;;10.06;66.84;101488.81;5076538;27;45793;-77
2023/05/16 06:16:49;;;;;;;;;1.00;1.00;;;;;10.11;66.00;101497.25;5076751;27;45680;-75
2023/05/16 06:19:15;;;;;;;;;2.00;1.25;;;;;10.15;66.12;101491.88;5076652;27;45638;-76
2023/05/16 06:25:02;;;;;;;;;2.00;2.00;;;;;10.24;66.00;101496.63;5076391;28;45886;-77
2023/05/16 06:27:27;;;;;;;;;1.00;1.00;;;;;10.26;65.43;101492.97;5076969;28;45788;-76
2023/05/16 06:29:53;;;;;;;;;3.00;1.25;;;;;10.30;65.25;101493.66;5076274;27;45603;-77
2023/05/16 06:32:18;;;;;;;;;2.75;2.00;;;;;10.35;65.18;101504.75;5076079;27;45739;-78
2023/05/16 06:34:44;;;;;;;;;1.00;1.00;;;;;10.38;64.97;101497.53;5076599;27;45522;-75
2023/05/16 06:40:31;;;;;;;;;0.50;0.50;;;;;10.43;63.96;101507.75;5076410;28;45451;-77
2023/05/16 06:42:57;;;;;;;;;5.00;2.00;;;;;10.44;64.14;101491.97;5076335;27;45779;-76
2023/05/16 06:45:23;;;;;;;;;1.00;1.00;;;;;10.47;63.86;101512.72;5075994;27;45719;-74
2023/05/16 06:47:48;;;;;;;;;2.00;1.00;;;;;10.49;63.68;101505.66;5076472;28;45489;-75
2023/05/16 06:50:13;;;;;;;;;2.25;1.50;;;;;10.52;63.72;101507.25;5076275;27;45750;-75
2023/05/16 06:52:39;;;;;;;;;3.00;1.00;;;;;10.56;63.80;101498.28;5076066;27;46128;-78
2023/05/16 06:55:04;;;;;;;;;1.75;0.00;;;;;10.60;63.58;101509.44;5075901;27;46096;-75
2023/05/16 06:57:30;;;;;;;;;2.50;1.00;;;;;10.63;63.62;101514.50;5076338;27;45598;-76
2023/05/16 06:59:55;;;;;;;;;1.25;1.00;;;;;10.65;63.46;101516.09;5076017;27;46646;-77
2023/05/16 07:02:20;;;;;;;;;0.50;0.50;;;;;10.69;63.45;101507.13;5075871;27;45687;-78
2023/05/16 07:04:46;;;;;;;;;1.75;0.50;;;;;10.72;62.79;101503.50;5075960;27;45545;-78
2023/05/16 07:10:33;;;;;;;;;1.00;1.00;;;;;10.77;63.23;101518.03;5075535;28;46068;-78
2023/05/16 07:13:00;;;;;;;;;1.50;0.25;;;;;10.81;62.85;101524.78;5075738;27;46054;-78
2023/05/16 07:15:25;;;;;;;;;2.50;1.25;;;;;10.84;62.96;101519.38;5075796;27;45601;-76
2023/05/16 07:17:51;;;;;;;;;2.00;1.00;;;;;10.89;63.04;101521.72;5075766;27;45996;-75
2023/05/16 07:20:16;;;;;;;;;1.00;0.25;;;;;10.96;62.51;101525.66;5075745;27;45661;-73
2023/05/16 07:22:42;;;;;;;;;3.00;1.00;;;;;10.98;62.66;101525.59;5075610;28;45837;-76
2023/05/16 07:25:11;;;;;;;;;1.00;1.00;;;;;11.03;62.89;101524.38;5075455;27;45654;-75
2023/05/16 07:27:43;;;;;;;;;0.50;0.50;;;;;11.08;62.62;101538.06;5075696;27;45831;-76
2023/05/16 07:30:11;;;;;;;;;4.75;1.00;;;;;11.12;61.97;101538.75;5075656;27;46500;-76
2023/05/16 07:32:37;;;;;;;;;0.25;0.00;;;;;11.13;62.02;101535.16;5075638;27;46067;-76
2023/05/16 07:35:03;;;;;;;;;0.00;0.00;;;;;11.16;61.38;101550.75;5076261;27;45568;-76
2023/05/16 07:40:50;;;;;;;;;0.00;0.00;;;;;11.19;61.48;101548.78;5082386;28;45516;-77
2023/05/16 07:43:15;;;;;;;;;3.00;1.00;;;;;11.21;60.79;101549.53;5080248;27;45593;-75
2023/05/16 07:45:41;;;;;;;;;2.00;0.75;;;;;11.23;60.42;101538.94;5078396;27;45616;-77
2023/05/16 07:48:06;;;;;;;;;1.00;1.00;;;;;11.24;60.83;101536.25;5076407;27;45600;-77
2023/05/16 07:50:32;;;;;;;;;2.00;2.00;;;;;11.26;60.92;101565.00;5076184;27;45513;-78
2023/05/16 07:52:57;;;;;;;;;2.00;1.00;;;;;11.27;60.99;101537.84;5075417;27;45600;-76
2023/05/16 07:55:22;;;;;;;;;2.00;1.00;;;;;11.30;60.60;101542.91;5075098;27;46036;-77
2023/05/16 07:57:49;;;;;;;;;3.00;1.50;;;;;11.31;60.55;101534.09;5075520;27;45748;-78
2023/05/16 08:00:15;;;;;;;;;1.00;1.00;;;;;11.35;60.75;101535.59;5075431;27;46487;-77
2023/05/16 08:02:41;;;;;;;;;2.50;1.75;;;;;11.33;60.57;101537.50;5075256;27;46318;-77
2023/05/16 08:05:07;;;;;;;;;1.00;1.00;;;;;11.34;60.46;101526.88;5074833;27;45758;-74
2023/05/16 08:10:55;;;;;;;;;2.00;1.00;;;;;11.38;60.47;101530.19;5074664;28;46144;-76
2023/05/16 08:13:20;;;;;;;;;1.75;1.00;;;;;11.40;60.07;101533.53;5074872;27;46221;-73
2023/05/16 08:15:46;;;;;;;;;3.00;2.00;;;;;11.44;59.90;101544.72;5074998;27;45553;-77
2023/05/16 08:18:13;;;;;;;;;3.25;1.00;;;;;11.44;59.89;101563.94;5075045;27;45597;-76
2023/05/16 08:20:40;;;;;;;;;1.00;0.75;;;;;11.45;59.89;101538.50;5074747;27;46285;-77
2023/05/16 08:26:27;;;;;;;;;1.00;1.00;;;;;11.54;59.30;101540.59;5074462;28;45683;-77
2023/05/16 08:28:52;;;;;;;;;0.00;0.00;;;;;11.58;58.63;101544.72;5074887;27;45743;-77
2023/05/16 08:31:18;;;;;;;;;2.25;1.00;;;;;11.59;58.05;101533.31;5074723;27;45742;-75
2023/05/16 08:33:43;;;;;;;;;1.75;1.00;;;;;11.58;58.34;101536.84;5074330;27;45733;-75
2023/05/16 08:36:09;;;;;;;;;1.75;1.00;;;;;11.61;58.61;101537.50;5074687;27;45646;-75
2023/05/16 08:38:34;;;;;;;;;2.00;1.00;;;;;11.64;58.41;101547.00;5073450;28;45804;-74
2023/05/16 08:41:00;;;;;;;;;1.00;1.00;;;;;11.66;58.59;101532.81;5074404;27;45588;-79
2023/05/16 08:43:26;;;;;;;;;0.25;0.25;;;;;11.71;58.57;101546.50;5074342;27;45545;-76
2023/05/16 08:45:51;;;;;;;;;2.75;2.00;;;;;11.76;58.15;101528.75;5074274;27;45663;-75
2023/05/16 08:48:22;;;;;;;;;1.00;1.00;;;;;11.82;58.12;101540.66;5074512;27;45585;-75
2023/05/16 08:50:47;;;;;;;;;1.00;1.00;;;;;11.85;57.94;101537.84;5074477;28;45766;-73
2023/05/16 08:56:37;;;;;;;;;1.00;0.00;;;;;11.94;56.43;101539.03;5062764;28;45875;-74
2023/05/16 08:59:03;;;;;;;;;0.00;0.00;;;;;11.97;56.46;101537.09;5074501;27;45591;-75
2023/05/16 09:01:33;;;;;;;;;1.00;0.00;;;;;12.02;56.27;101550.78;5074243;28;45600;-77
2023/05/16 09:03:59;;;;;;;;;0.75;0.75;;;;;12.06;56.23;101538.28;5074112;27;45986;-75
2023/05/16 09:06:25;;;;;;;;;2.00;0.50;;;;;12.11;56.11;101547.56;5074060;27;45672;-77
2023/05/16 09:08:52;;;;;;;;;1.25;1.00;;;;;12.18;55.94;101561.16;5074406;27;45599;-77
2023/05/16 09:11:18;;;;;;;;;1.50;0.75;;;;;12.21;54.66;101545.19;5074083;27;45623;-75
2023/05/16 09:13:43;;;;;;;;;0.00;0.00;;;;;12.24;54.42;101538.94;5074016;27;45668;-75
2023/05/16 09:16:11;;;;;;;;;1.00;1.00;;;;;12.24;54.63;101534.50;5074208;27;45543;-76
2023/05/16 09:18:38;;;;;;;;;1.25;1.00;;;;;12.26;55.11;101534.41;5074223;27;45755;-76
2023/05/16 09:21:04;;;;;;;;;2.00;0.50;;;;;12.31;54.52;101533.16;5074217;28;45771;-76
2023/05/16 09:26:53;;;;;;;;;1.75;1.00;;;;;12.40;54.48;101542.28;5073313;28;45770;-76
2023/05/16 09:29:18;;;;;;;;;0.00;0.00;;;;;12.42;54.35;101543.00;5074181;27;45576;-77
2023/05/16 09:31:44;;;;;;;;;1.00;1.00;;;;;12.46;54.11;101553.25;5073858;27;45523;-77
2023/05/16 09:34:11;;;;;;;;;1.75;1.00;;;;;12.50;54.06;101543.38;5073599;27;45757;-78
2023/05/16 09:36:37;;;;;;;;;0.50;0.50;;;;;12.53;54.09;101549.25;5073784;27;45662;-77
2023/05/16 09:39:02;;;;;;;;;1.00;0.00;;;;;12.57;53.86;101534.16;5074122;28;45760;-76
2023/05/16 09:41:32;;;;;;;;;0.00;0.00;;;;;12.60;53.55;101541.81;5073889;27;46108;-76
2023/05/16 09:43:57;;;;;;;;;2.00;1.00;;;;;12.61;53.40;101544.38;5089119;27;48026;-76
2023/05/16 09:46:26;;;;;;;;;0.00;0.00;;;;;12.66;53.75;101545.84;5073981;27;45657;-76
2023/05/16 09:48:52;;;;;;;;;2.00;1.00;;;;;12.68;53.06;101549.22;5090178;27;45530;-76
2023/05/16 09:57:29;;;;;;;;;1.50;1.25;;;;;12.78;52.67;101531.91;5070822;28;45688;-76
2023/05/16 09:59:58;;;;;;;;;0.50;0.50;;;;;12.81;52.37;101540.44;5074372;28;45604;-76
2023/05/16 10:02:25;;;;;;;;;0.75;0.75;;;;;12.82;51.87;101538.66;5073916;27;45733;-76
2023/05/16 10:04:50;;;;;;;;;1.00;1.00;;;;;12.85;52.44;101551.59;5074226;28;45963;-77
2023/05/16 10:07:16;;;;;;;;;1.00;0.50;;;;;12.88;52.24;101548.78;5077156;27;45949;-78
2023/05/16 10:09:42;;;;;;;;;1.00;0.75;;;;;12.90;52.23;101531.94;5077142;27;45830;-77
2023/05/16 10:12:12;;;;;;;;;1.00;1.00;;;;;12.96;52.17;101544.69;5092348;27;47540;-77
2023/05/16 10:14:40;;;;;;;;;1.00;1.00;;;;;12.99;51.76;101526.06;5076463;27;45510;-75
2023/05/16 10:17:06;;;;;;;;;1.00;0.50;;;;;13.03;51.51;101535.44;5058283;28;46295;-75
2023/05/16 10:19:36;;;;;;;;;0.25;0.25;;;;;13.05;51.20;101527.47;5076957;27;45670;-76
2023/05/16 10:22:05;;;;;;;;;0.00;0.00;;;;;13.09;50.96;101525.47;5092313;27;48085;-75
2023/05/16 10:24:43;;;;;;;;;1.00;1.00;;;;;13.14;50.84;101529.50;5076445;27;45604;-78
2023/05/16 10:27:09;;;;;;;;;2.00;1.00;;;;;13.15;51.66;101510.13;5076697;27;45581;-77
2023/05/16 10:29:37;;;;;;;;;1.50;1.00;;;;;13.22;51.27;101534.25;5077072;27;45423;-76
2023/05/16 10:32:02;;;;;;;;;1.00;1.00;;;;;13.28;51.05;101518.88;5076523;27;45536;-76
2023/05/16 10:34:28;;;;;;;;;1.00;1.00;;;;;13.34;51.06;101525.50;5076630;27;46131;-76
2023/05/16 10:36:54;;;;;;;;;1.00;1.00;;;;;13.37;50.91;101523.53;5076461;27;46094;-76
2023/05/16 10:39:20;;;;;;;;;1.50;1.00;;;;;13.41;51.05;101532.06;5076626;28;45526;-76
2023/05/16 10:41:46;;;;;;;;;1.25;1.00;;;;;13.44;51.63;101551.09;5076439;28;45664;-75
2023/05/16 10:44:14;;;;;;;;;1.50;1.00;;;;;13.49;51.13;101524.50;5076177;27;46048;-76
2023/05/16 10:46:40;;;;;;;;;2.00;1.00;;;;;13.54;50.77;101542.59;5076201;28;45716;-76
2023/05/16 10:49:24;;;;;;;;;0.00;0.00;;;;;13.59;50.24;101540.50;5082642;27;45091;-76
2023/05/16 10:52:05;;;;;;;;;2.00;1.00;;;;;13.64;50.06;101543.66;5077443;28;45463;-75
2023/05/16 10:54:35;;;;;;;;;1.25;1.00;;;;;13.65;49.80;101530.38;5075995;27;46196;-78
2023/05/16 10:57:31;;;;;;;;;0.00;0.00;;;;;13.70;49.66;101538.81;5075880;27;45719;-77
2023/05/16 11:00:00;;;;;;;;;0.00;0.00;;;;;13.76;49.74;101537.53;5013845;28;45480;-77
2023/05/16 11:02:38;;;;;;;;;2.00;1.00;;;;;13.80;49.60;101521.41;5013642;28;45594;-76
2023/05/16 11:05:05;;;;;;;;;0.00;0.00;;;;;13.87;49.20;101521.84;5013377;28;47037;-77
2023/05/16 11:07:35;;;;;;;;;1.75;1.00;;;;;13.92;49.47;101527.63;5013094;28;45614;-75
2023/05/16 11:10:09;;;;;;;;;2.00;1.00;;;;;13.95;49.48;101540.56;5013773;28;45918;-76
2023/05/16 11:12:43;;;;;;;;;3.00;2.50;;;;;14.01;48.97;101529.59;5013356;28;46476;-78
2023/05/16 11:15:26;;;;;;;;;1.00;1.00;;;;;14.08;49.04;101530.84;5014635;28;45618;-74
2023/05/16 11:18:06;;;;;;;;;1.00;1.00;;;;;14.13;48.62;101568.28;5013101;28;45641;-74
2023/05/16 11:20:34;;;;;;;;;1.00;1.00;;;;;14.14;48.36;101519.03;5013962;28;45808;-76
2023/05/16 11:23:21;;;;;;;;;0.50;0.25;;;;;14.21;47.87;101525.53;5013234;28;45650;-75
2023/05/16 11:25:52;;;;;;;;;1.00;1.00;;;;;14.26;48.51;101526.03;5013476;28;45928;-74
2023/05/16 11:28:19;;;;;;;;;0.50;0.50;;;;;14.30;47.96;101530.16;5013331;28;45733;-76
2023/05/16 11:30:48;;;;;;;;;0.00;0.00;;;;;14.34;47.69;101523.72;5013468;28;45806;-77
2023/05/16 11:33:13;;;;;;;;;1.25;1.00;;;;;14.37;47.83;101509.50;5013188;28;45683;-76
2023/05/16 11:35:39;;;;;;;;;0.50;0.00;;;;;14.42;47.82;101529.28;5026478;28;45666;-76
2023/05/16 11:38:04;;;;;;;;;0.75;0.00;;;;;14.44;47.77;101518.66;5073278;28;45568;-76
2023/05/16 11:40:30;;;;;;;;;1.00;0.00;;;;;14.48;47.59;101530.66;5075407;27;45771;-76
2023/05/16 11:43:02;;;;;;;;;1.00;1.00;;;;;14.52;47.65;101521.59;5075318;27;46509;-76
2023/05/16 11:45:27;;;;;;;;;1.00;0.00;;;;;14.54;47.77;101503.84;5075296;27;46302;-77
2023/05/16 11:47:53;;;;;;;;;0.75;0.00;;;;;14.58;46.71;101508.75;5075318;27;45619;-77
2023/05/16 11:50:20;;;;;;;;;1.00;0.00;;;;;14.65;47.33;101511.81;5075595;27;45936;-76
2023/05/16 11:52:49;;;;;;;;;1.00;1.00;;;;;14.71;47.24;101506.06;5075311;27;45782;-76
2023/05/16 11:55:17;;;;;;;;;1.00;0.25;;;;;14.75;47.36;101512.81;5075148;27;46025;-77
2023/05/16 11:57:42;;;;;;;;;1.00;1.00;;;;;14.78;47.25;101517.03;5074898;27;46156;-76
2023/05/16 12:00:16;;;;;;;;;1.75;1.00;;;;;14.83;47.51;101496.41;5075457;27;45759;-75
2023/05/16 12:02:43;;;;;;;;;0.00;0.00;;;;;14.93;47.06;101502.69;5075054;28;45660;-77
2023/05/16 12:05:09;;;;;;;;;0.00;0.00;;;;;14.97;46.95;101510.25;5075224;27;45823;-76
2023/05/16 12:07:38;;;;;;;;;2.25;1.00;;;;;15.02;46.75;101502.81;5074956;27;45764;-77
2023/05/16 12:10:06;;;;;;;;;1.00;0.75;;;;;15.06;46.15;101516.66;5090825;27;45766;-76
2023/05/16 12:12:32;;;;;;;;;0.00;0.00;;;;;15.10;46.14;101521.59;5075116;27;45591;-76
2023/05/16 12:14:58;;;;;;;;;1.00;0.00;;;;;15.15;46.00;101509.81;5075044;27;46517;-77
2023/05/16 12:17:23;;;;;;;;;1.50;0.25;;;;;15.21;45.71;101497.00;5074821;27;45663;-76
2023/05/16 12:19:49;;;;;;;;;0.00;0.00;;;;;15.27;45.35;101493.06;5074704;27;45852;-76
2023/05/16 12:22:19;;;;;;;;;1.75;0.00;;;;;15.32;45.98;101504.09;5075032;27;46719;-77
2023/05/16 12:28:07;;;;;;;;;1.00;1.00;;;;;15.40;45.74;101517.56;5073830;28;45654;-78
2023/05/16 12:30:32;;;;;;;;;0.00;0.00;;;;;15.43;45.35;101507.63;5074783;27;45692;-77
2023/05/16 12:33:00;;;;;;;;;1.00;1.00;;;;;15.48;45.75;101496.69;5074631;27;46493;-77
2023/05/16 12:35:32;;;;;;;;;0.25;0.25;;;;;15.53;45.29;101497.19;5074735;27;45815;-76
2023/05/16 12:37:57;;;;;;;;;0.00;0.00;;;;;15.57;44.93;101511.84;5074500;27;45572;-77
2023/05/16 12:40:27;;;;;;;;;2.00;1.00;;;;;15.57;44.57;101488.06;5074618;27;45892;-77